createdAt,value
2019-05-28T00:05:04.241Z,21.7
2019-05-28T00:20:05.197Z,21.6
2019-05-28T00:35:04.264Z,21.6
2019-05-28T00:50:03.587Z,21.6
2019-05-28T01:05:03.519Z,21.6
2019-05-28T01:20:05.276Z,21.6
2019-05-28T01:35:04.243Z,21.6
2019-05-28T01:50:05.447Z,21.6
2019-05-28T02:05:02.983Z,21.5
2019-05-28T02:20:03.926Z,21.5
2019-05-28T02:35:03.312Z,21.5
2019-05-28T02:50:04.349Z,21.5
2019-05-28T03:05:05.842Z,21.5
2019-05-28T03:20:03.503Z,21.5
2019-05-28T03:35:03.776Z,21.5
2019-05-28T03:50:05.689Z,21.5
2019-05-28T04:05:03.395Z,21.5
2019-05-28T04:20:05.441Z,21.5
2019-05-28T04:35:05.749Z,21.5
2019-05-28T04:50:06.297Z,21.5
2019-05-28T05:05:05.336Z,21.5
2019-05-28T05:20:05.248Z,21.5
2019-05-28T05:35:04.648Z,21.5
2019-05-28T05:50:09.409Z,21.5
2019-05-28T06:05:05.904Z,21.7
2019-05-28T06:20:12.147Z,21.8
2019-05-28T06:35:05.907Z,22
2019-05-28T06:50:04.527Z,22.1
2019-05-28T07:05:05.838Z,22.3
2019-05-28T07:20:04.459Z,22.3
2019-05-28T07:35:05.473Z,22.5
2019-05-28T07:50:07.365Z,22.6
2019-05-28T08:05:05.572Z,22.7
2019-05-28T08:20:05.631Z,22.8
2019-05-28T08:35:06.658Z,22.9
2019-05-28T08:50:08.215Z,22.9
2019-05-28T09:05:22.960Z,23
2019-05-28T09:20:09.282Z,23
2019-05-28T09:35:05.401Z,23.1
2019-05-28T10:05:05.394Z,23.1
2019-05-28T10:20:06.372Z,23.2
2019-05-28T10:35:04.449Z,23.2
2019-05-28T10:50:06.456Z,23.2
2019-05-28T11:05:05.945Z,23.3
2019-05-28T11:20:04.818Z,23.3
2019-05-28T11:35:04.805Z,23.4
2019-05-28T11:50:06.318Z,23.4
2019-05-28T12:05:04.651Z,23.4
2019-05-28T12:20:07.931Z,23.5
2019-05-28T12:35:03.434Z,23.5
2019-05-28T12:50:18.803Z,23.6
2019-05-28T13:05:04.811Z,23.6
2019-05-28T13:20:06.872Z,23.6
2019-05-28T13:35:04.656Z,23.6
2019-05-28T13:50:05.076Z,23.7
2019-05-28T14:05:03.840Z,23.7
2019-05-28T14:20:03.580Z,23.7
2019-05-28T14:35:06.015Z,23.8
2019-05-28T14:50:04.125Z,23.7
2019-05-28T15:05:03.433Z,23.7
2019-05-28T15:20:04.978Z,23.7
2019-05-28T15:35:05.242Z,23.7
2019-05-28T15:50:04.281Z,23.6
2019-05-28T16:05:05.504Z,23.6
2019-05-28T16:20:05.996Z,23.6
2019-05-28T16:35:04.472Z,23.6
2019-05-28T17:05:06.173Z,23.4
2019-05-28T17:20:04.346Z,23.2
2019-05-28T17:35:05.439Z,23.2
2019-05-28T17:50:06.913Z,23.1
2019-05-28T18:05:03.816Z,23
2019-05-28T18:20:05.303Z,22.9
2019-05-28T18:35:04.179Z,22.8
2019-05-28T18:50:05.143Z,22.7
2019-05-28T19:05:03.342Z,22.6
2019-05-28T19:20:04.726Z,22.4
2019-05-28T19:35:07.871Z,22.4
2019-05-28T19:50:06.392Z,22.3
2019-05-28T20:05:03.449Z,22.2
2019-05-28T20:20:04.727Z,22.2
2019-05-28T20:35:07.664Z,22.1
2019-05-28T20:50:07.585Z,22.1
2019-05-28T21:05:03.731Z,22
2019-05-28T21:20:07.736Z,22
2019-05-28T21:35:05.304Z,21.9
2019-05-28T21:50:04.773Z,21.9
2019-05-28T22:05:06.333Z,21.9
2019-05-28T22:20:06.769Z,21.9
2019-05-28T22:35:06.050Z,21.9
2019-05-28T22:50:19.107Z,21.9
2019-05-28T23:05:03.181Z,21.9
2019-05-28T23:20:04.689Z,21.8
2019-05-28T23:35:04.537Z,21.8
2019-05-28T23:50:16.545Z,21.8
